createdAt,value
2022-10-10T00:00:38.437Z,90.89
2022-10-10T00:03:25.111Z,90.86
2022-10-10T00:06:11.457Z,90.77
2022-10-10T00:08:56.934Z,90.56
2022-10-10T00:11:41.945Z,90.88
2022-10-10T00:14:30.420Z,90.70
2022-10-10T00:17:17.911Z,90.26
2022-10-10T00:20:03.727Z,89.99
2022-10-10T00:22:49.110Z,90.63
2022-10-10T00:25:34.156Z,90.20
2022-10-10T00:28:19.592Z,90.91
2022-10-10T00:31:06.619Z,91.31
2022-10-10T00:33:51.441Z,91.23
2022-10-10T00:36:36.316Z,90.69
2022-10-10T00:39:21.455Z,91.31
2022-10-10T00:42:06.390Z,90.75
2022-10-10T00:45:19.285Z,90.97
2022-10-10T00:48:35.133Z,91.67
2022-10-10T00:51:20.718Z,91.06
2022-10-10T00:54:09.365Z,91.15
2022-10-10T00:57:03.732Z,91.14
2022-10-10T00:59:49.981Z,91.86
2022-10-10T01:02:35.213Z,91.23
2022-10-10T01:05:20.129Z,91.14
2022-10-10T01:08:07.090Z,90.73
2022-10-10T01:11:33.338Z,91.08
2022-10-10T01:14:32.567Z,90.95
2022-10-10T01:17:48.184Z,91.47
2022-10-10T01:20:45.252Z,91.99
2022-10-10T01:24:07.445Z,92.05
2022-10-10T01:27:18.206Z,92.28
2022-10-10T01:30:08.841Z,92.80
2022-10-10T01:33:08.648Z,92.53
2022-10-10T01:36:08.749Z,92.34
2022-10-10T01:39:20.091Z,91.94
2022-10-10T01:42:16.036Z,91.59
2022-10-10T01:45:00.975Z,91.94
2022-10-10T01:47:47.270Z,91.96
2022-10-10T01:50:42.315Z,91.71
2022-10-10T01:53:56.747Z,91.79
2022-10-10T01:57:15.127Z,92.25
2022-10-10T02:00:03.002Z,92.68
2022-10-10T02:02:56.948Z,93.28
2022-10-10T02:05:58.124Z,93.45
2022-10-10T02:08:54.570Z,93.41
2022-10-10T02:11:40.808Z,93.87
2022-10-10T02:14:31.990Z,93.15
2022-10-10T02:17:18.031Z,92.36
2022-10-10T02:20:06.114Z,92.67
2022-10-10T02:22:52.417Z,92.87
2022-10-10T02:25:41.193Z,93.17
2022-10-10T02:28:38.248Z,93.40
2022-10-10T02:31:37.502Z,94.46
2022-10-10T02:34:27.828Z,95.01
2022-10-10T02:37:15.658Z,95.27
2022-10-10T02:40:02.544Z,95.45
2022-10-10T02:42:50.655Z,96.24
2022-10-10T02:45:36.910Z,96.03
2022-10-10T02:48:21.805Z,96.58
2022-10-10T02:51:07.145Z,96.55
2022-10-10T02:53:52.150Z,96.45
2022-10-10T02:56:37.513Z,97.06
2022-10-10T02:59:22.450Z,97.12
2022-10-10T03:02:07.479Z,97.26
2022-10-10T03:04:52.470Z,97.24
2022-10-10T03:07:37.402Z,97.80
2022-10-10T03:10:22.543Z,97.55
2022-10-10T03:13:07.590Z,97.87
2022-10-10T03:15:53.799Z,98.03
2022-10-10T03:18:38.642Z,98.02
2022-10-10T03:21:23.832Z,98.05
2022-10-10T03:24:08.847Z,97.68
2022-10-10T03:26:54.084Z,97.95
2022-10-10T03:29:39.011Z,97.93
2022-10-10T03:32:25.198Z,96.94
2022-10-10T03:35:09.956Z,96.74
2022-10-10T03:37:56.096Z,97.37
2022-10-10T03:40:43.446Z,97.47
2022-10-10T03:43:28.611Z,98.08
2022-10-10T03:46:16.182Z,98.84
2022-10-10T03:49:01.646Z,97.86
2022-10-10T03:51:46.941Z,97.07
2022-10-10T03:54:32.113Z,97.74
2022-10-10T03:57:17.111Z,97.86
2022-10-10T04:00:02.141Z,98.17
2022-10-10T04:02:47.293Z,98.80
2022-10-10T04:05:34.727Z,99.13
2022-10-10T04:08:20.483Z,100.00
2022-10-10T04:11:05.424Z,100.00
2022-10-10T04:13:50.528Z,99.85
2022-10-10T04:16:35.491Z,100.00
2022-10-10T04:19:20.409Z,99.97
2022-10-10T04:22:09.027Z,100.00
2022-10-10T04:24:56.150Z,100.00
2022-10-10T04:27:41.124Z,100.00
2022-10-10T04:30:26.769Z,100.00
2022-10-10T04:33:12.217Z,100.00
2022-10-10T04:35:57.399Z,100.00
2022-10-10T04:38:42.144Z,100.00
2022-10-10T04:41:27.026Z,100.00
2022-10-10T04:44:11.943Z,100.00
2022-10-10T04:46:56.955Z,100.00
2022-10-10T04:49:41.827Z,100.00
2022-10-10T04:52:27.192Z,100.00
2022-10-10T04:55:12.178Z,100.00
2022-10-10T04:57:57.056Z,100.00
2022-10-10T05:00:42.242Z,100.00
2022-10-10T05:03:27.304Z,100.00
2022-10-10T05:06:12.186Z,100.00
2022-10-10T05:08:57.499Z,100.00
2022-10-10T05:11:42.578Z,100.00
2022-10-10T05:14:28.235Z,100.00
2022-10-10T05:17:13.417Z,100.00
2022-10-10T05:19:59.040Z,100.00
2022-10-10T05:22:44.851Z,100.00
2022-10-10T05:25:29.854Z,100.00
2022-10-10T05:28:15.121Z,100.00
2022-10-10T05:31:00.979Z,100.00
2022-10-10T05:33:45.941Z,100.00
2022-10-10T05:36:30.930Z,100.00
2022-10-10T05:39:16.118Z,100.00
2022-10-10T05:42:01.845Z,100.00
2022-10-10T05:44:47.076Z,100.00
2022-10-10T05:47:32.368Z,100.00
2022-10-10T05:50:35.886Z,100.00
2022-10-10T05:53:26.305Z,100.00
2022-10-10T05:56:11.425Z,100.00
2022-10-10T05:58:56.356Z,100.00
2022-10-10T06:01:41.324Z,100.00
2022-10-10T06:04:26.683Z,100.00
2022-10-10T06:07:11.737Z,100.00
2022-10-10T06:09:56.828Z,100.00
2022-10-10T06:12:41.732Z,100.00
2022-10-10T06:15:27.024Z,100.00
2022-10-10T06:18:13.000Z,100.00
2022-10-10T06:21:02.241Z,100.00
2022-10-10T06:23:48.141Z,99.10
2022-10-10T06:26:33.669Z,97.35
2022-10-10T06:29:18.943Z,95.61
2022-10-10T06:32:03.843Z,95.27
2022-10-10T06:34:48.788Z,93.38
2022-10-10T06:37:33.829Z,90.83
2022-10-10T06:40:18.689Z,89.14
2022-10-10T06:43:04.121Z,87.88
2022-10-10T06:45:50.412Z,88.06
2022-10-10T06:48:35.500Z,86.90
2022-10-10T06:51:20.862Z,85.43
2022-10-10T06:54:05.961Z,83.58
2022-10-10T06:56:51.143Z,82.81
2022-10-10T06:59:36.172Z,82.53
2022-10-10T07:02:20.971Z,81.87
2022-10-10T07:05:07.461Z,82.82
2022-10-10T07:07:52.968Z,82.50
2022-10-10T07:10:38.417Z,83.39
2022-10-10T07:13:23.960Z,84.85
2022-10-10T07:16:10.673Z,86.41
2022-10-10T07:18:55.774Z,86.79
2022-10-10T07:21:40.984Z,86.41
2022-10-10T07:24:25.984Z,87.08
2022-10-10T07:27:11.205Z,89.15
2022-10-10T07:29:56.517Z,90.37
2022-10-10T07:32:42.042Z,90.92
2022-10-10T07:35:26.941Z,90.87
2022-10-10T07:38:11.878Z,91.20
2022-10-10T07:40:57.338Z,91.96
2022-10-10T07:43:42.668Z,92.87
2022-10-10T07:46:28.142Z,93.18
2022-10-10T07:49:13.083Z,92.84
2022-10-10T07:52:00.453Z,92.72
2022-10-10T07:54:45.870Z,92.39
2022-10-10T07:57:31.386Z,92.08
2022-10-10T08:00:17.082Z,91.57
2022-10-10T08:03:02.465Z,91.10
2022-10-10T08:05:47.384Z,89.42
2022-10-10T08:08:34.591Z,88.71
2022-10-10T08:11:21.787Z,88.11
2022-10-10T08:14:06.830Z,87.41
2022-10-10T08:16:51.858Z,87.20
2022-10-10T08:19:37.245Z,87.34
2022-10-10T08:22:22.535Z,86.73
2022-10-10T08:25:07.901Z,86.48
2022-10-10T08:27:53.434Z,86.48
2022-10-10T08:30:40.714Z,86.46
2022-10-10T08:33:27.458Z,86.66
2022-10-10T08:36:15.855Z,87.07
2022-10-10T08:39:00.855Z,86.60
2022-10-10T08:41:48.967Z,86.71
2022-10-10T08:44:46.185Z,85.57
2022-10-10T08:47:31.576Z,85.52
2022-10-10T08:50:20.223Z,85.90
2022-10-10T08:53:42.791Z,85.06
2022-10-10T08:56:31.410Z,86.82
2022-10-10T08:59:23.237Z,85.44
2022-10-10T09:05:39.798Z,85.43
2022-10-10T09:08:39.364Z,85.88
2022-10-10T09:11:33.854Z,84.97
2022-10-10T09:14:36.876Z,83.85
2022-10-10T09:17:36.355Z,83.21
2022-10-10T09:20:24.490Z,82.97
2022-10-10T09:23:27.360Z,83.88
2022-10-10T09:26:15.804Z,83.10
2022-10-10T09:29:27.314Z,83.61
2022-10-10T09:32:25.324Z,83.89
2022-10-10T09:35:25.407Z,82.40
2022-10-10T09:38:10.614Z,81.53
2022-10-10T09:41:21.605Z,81.96
2022-10-10T09:44:13.621Z,80.94
2022-10-10T09:46:59.322Z,80.02
2022-10-10T09:49:45.050Z,83.59
2022-10-10T09:52:31.875Z,80.15
2022-10-10T09:55:29.315Z,78.39
2022-10-10T09:58:44.864Z,77.50
2022-10-10T10:01:31.989Z,78.36
2022-10-10T10:04:28.698Z,78.65
2022-10-10T10:07:17.441Z,79.18
2022-10-10T10:10:17.306Z,78.26
2022-10-10T10:13:02.670Z,76.33
2022-10-10T10:15:52.066Z,75.19
2022-10-10T10:18:42.701Z,74.89
2022-10-10T10:21:28.987Z,74.25
2022-10-10T10:24:23.653Z,73.92
2022-10-10T10:27:21.038Z,75.53
2022-10-10T10:30:24.300Z,72.18
2022-10-10T10:33:50.704Z,73.24
2022-10-10T10:36:45.142Z,72.51
2022-10-10T10:39:41.905Z,71.81
2022-10-10T10:42:45.095Z,71.94
2022-10-10T10:46:00.931Z,71.51
2022-10-10T10:49:09.718Z,70.53
2022-10-10T10:52:03.534Z,71.76
2022-10-10T10:55:19.260Z,70.98
2022-10-10T10:59:16.020Z,69.01
2022-10-10T11:02:08.964Z,69.63
2022-10-10T11:05:19.452Z,69.77
2022-10-10T11:08:28.474Z,66.54
2022-10-10T11:11:25.797Z,67.56
2022-10-10T11:14:33.092Z,67.30
2022-10-10T11:17:39.531Z,66.85
2022-10-10T11:20:30.497Z,65.81
2022-10-10T11:23:24.976Z,66.24
2022-10-10T11:26:21.952Z,66.98
2022-10-10T11:29:51.816Z,64.93
2022-10-10T11:32:40.713Z,65.31
2022-10-10T11:35:52.579Z,65.46
2022-10-10T11:38:56.346Z,64.72
2022-10-10T11:41:44.649Z,64.50
2022-10-10T11:44:40.313Z,64.27
2022-10-10T11:47:32.819Z,63.65
2022-10-10T11:50:28.658Z,64.13
2022-10-10T11:53:28.686Z,63.43
2022-10-10T11:56:14.620Z,63.07
2022-10-10T11:59:30.058Z,63.72
2022-10-10T12:02:37.053Z,64.15
2022-10-10T12:05:25.642Z,64.63
2022-10-10T12:08:18.456Z,63.54
2022-10-10T12:11:22.573Z,62.11
2022-10-10T12:14:13.611Z,61.62
2022-10-10T12:16:59.806Z,61.31
2022-10-10T12:19:48.276Z,61.57
2022-10-10T12:22:33.765Z,60.26
2022-10-10T12:25:35.384Z,61.11
2022-10-10T12:28:36.528Z,61.23
2022-10-10T12:31:33.774Z,59.89
2022-10-10T12:34:43.981Z,60.92
2022-10-10T12:37:32.075Z,59.18
2022-10-10T12:40:20.742Z,59.03
2022-10-10T12:43:44.220Z,60.43
2022-10-10T12:46:31.333Z,61.33
2022-10-10T12:49:25.918Z,59.94
2022-10-10T12:52:20.341Z,60.89
2022-10-10T12:55:20.420Z,59.88
2022-10-10T12:58:17.289Z,60.33
2022-10-10T13:01:41.943Z,61.46
2022-10-10T13:04:27.248Z,62.32
2022-10-10T13:07:18.045Z,62.87
2022-10-10T13:10:19.999Z,60.65
2022-10-10T13:13:21.324Z,59.90
2022-10-10T13:16:15.003Z,59.23
2022-10-10T13:19:00.795Z,57.39
2022-10-10T13:21:46.730Z,57.35
2022-10-10T13:24:31.969Z,57.33
2022-10-10T13:27:27.981Z,57.57
2022-10-10T13:30:31.611Z,58.60
2022-10-10T13:33:22.324Z,57.93
2022-10-10T13:36:17.818Z,58.99
2022-10-10T13:39:03.311Z,58.52
2022-10-10T13:41:49.165Z,58.86
2022-10-10T13:44:48.933Z,60.31
2022-10-10T13:47:46.073Z,60.66
2022-10-10T13:50:33.342Z,61.74
2022-10-10T13:53:41.424Z,61.51
2022-10-10T13:56:37.643Z,61.66
2022-10-10T13:59:24.507Z,57.26
2022-10-10T14:02:14.677Z,57.92
2022-10-10T14:05:07.750Z,57.69
2022-10-10T14:07:53.497Z,58.22
2022-10-10T14:10:39.019Z,58.32
2022-10-10T14:13:24.040Z,58.00
2022-10-10T14:16:12.359Z,58.85
2022-10-10T14:18:57.793Z,60.27
2022-10-10T14:21:42.545Z,60.58
2022-10-10T14:24:27.460Z,59.45
2022-10-10T14:27:22.187Z,59.70
2022-10-10T14:30:07.981Z,60.35
2022-10-10T14:32:52.875Z,60.66
2022-10-10T14:35:42.377Z,61.54
2022-10-10T14:38:27.622Z,60.86
2022-10-10T14:41:13.220Z,61.53
2022-10-10T14:43:58.286Z,61.57
2022-10-10T14:46:43.848Z,61.74
2022-10-10T14:49:29.047Z,61.25
2022-10-10T14:52:16.177Z,61.35
2022-10-10T14:55:01.145Z,61.94
2022-10-10T14:57:46.670Z,63.51
2022-10-10T15:00:31.819Z,63.76
2022-10-10T15:03:17.048Z,63.38
2022-10-10T15:06:02.493Z,64.88
2022-10-10T15:08:48.559Z,65.37
2022-10-10T15:11:33.786Z,66.02
2022-10-10T15:14:18.877Z,67.98
2022-10-10T15:17:05.780Z,67.92
2022-10-10T15:19:51.456Z,67.76
2022-10-10T15:22:37.769Z,67.10
2022-10-10T15:25:23.188Z,68.13
2022-10-10T15:28:11.246Z,68.59
2022-10-10T15:30:56.526Z,67.92
2022-10-10T15:33:41.483Z,68.17
2022-10-10T15:36:26.398Z,68.96
2022-10-10T15:39:11.798Z,68.07
2022-10-10T15:41:57.116Z,69.09
2022-10-10T15:44:47.066Z,69.19
2022-10-10T15:47:32.320Z,69.82
2022-10-10T15:50:17.669Z,69.58
2022-10-10T15:53:02.848Z,69.57
2022-10-10T15:55:50.795Z,70.38
2022-10-10T15:58:37.713Z,70.09
2022-10-10T16:01:23.631Z,71.29
2022-10-10T16:04:08.840Z,72.23
2022-10-10T16:06:59.299Z,70.87
2022-10-10T16:09:57.625Z,71.69
2022-10-10T16:12:42.717Z,71.74
2022-10-10T16:15:27.852Z,71.01
2022-10-10T16:18:12.585Z,71.07
2022-10-10T16:20:57.517Z,71.44
2022-10-10T16:23:42.294Z,71.65
2022-10-10T16:26:30.106Z,72.52
2022-10-10T16:29:15.477Z,73.43
2022-10-10T16:32:00.607Z,74.59
2022-10-10T16:34:45.557Z,77.09
2022-10-10T16:37:30.446Z,77.58
2022-10-10T16:40:15.369Z,79.47
2022-10-10T16:43:00.926Z,81.53
2022-10-10T16:45:46.378Z,85.33
2022-10-10T16:48:32.189Z,86.83
2022-10-10T16:51:19.734Z,88.95
2022-10-10T16:54:05.044Z,91.38
2022-10-10T16:56:50.191Z,93.95
2022-10-10T16:59:35.663Z,96.02
2022-10-10T17:02:21.233Z,98.08
2022-10-10T17:05:06.826Z,100.00
2022-10-10T17:07:51.737Z,100.00
2022-10-10T17:10:36.561Z,100.00
2022-10-10T17:13:21.479Z,100.00
2022-10-10T17:16:40.512Z,100.00
2022-10-10T17:19:14.048Z,100.00
2022-10-10T17:21:59.325Z,100.00
2022-10-10T17:24:44.438Z,100.00
2022-10-10T17:27:29.562Z,100.00
2022-10-10T17:30:17.218Z,100.00
2022-10-10T17:33:02.448Z,100.00
2022-10-10T17:35:52.054Z,100.00
2022-10-10T17:38:40.389Z,100.00
2022-10-10T17:41:25.577Z,100.00
2022-10-10T17:44:10.979Z,100.00
2022-10-10T17:46:56.761Z,100.00
2022-10-10T17:49:41.832Z,100.00
2022-10-10T17:52:26.921Z,100.00
2022-10-10T17:55:15.318Z,100.00
2022-10-10T17:58:00.438Z,100.00
2022-10-10T18:00:48.739Z,100.00
2022-10-10T18:03:33.702Z,100.00
2022-10-10T18:06:22.829Z,100.00
2022-10-10T18:09:07.738Z,100.00
2022-10-10T18:11:53.828Z,100.00
2022-10-10T18:14:39.316Z,100.00
2022-10-10T18:17:25.726Z,100.00
2022-10-10T18:20:11.284Z,100.00
2022-10-10T18:22:57.067Z,100.00
2022-10-10T18:25:43.727Z,100.00
2022-10-10T18:28:34.121Z,100.00
2022-10-10T18:31:22.950Z,100.00
2022-10-10T18:34:07.874Z,100.00
2022-10-10T18:36:53.762Z,100.00
2022-10-10T18:39:42.285Z,100.00
2022-10-10T18:42:27.354Z,100.00
2022-10-10T18:45:12.198Z,100.00
2022-10-10T18:48:00.097Z,100.00
2022-10-10T18:50:44.942Z,100.00
2022-10-10T18:53:30.504Z,100.00
2022-10-10T18:56:18.769Z,100.00
2022-10-10T18:59:05.209Z,99.84
2022-10-10T19:01:50.377Z,99.77
2022-10-10T19:04:35.592Z,99.83
2022-10-10T19:07:20.389Z,99.50
2022-10-10T19:10:06.023Z,99.14
2022-10-10T19:12:51.001Z,99.21
2022-10-10T19:15:36.065Z,98.41
2022-10-10T19:18:21.954Z,98.71
2022-10-10T19:21:10.261Z,98.04
2022-10-10T19:23:55.431Z,99.11
2022-10-10T19:26:41.278Z,100.00
2022-10-10T19:29:27.078Z,100.00
2022-10-10T19:32:11.995Z,100.00
2022-10-10T19:34:56.893Z,100.00
2022-10-10T19:37:41.830Z,100.00
2022-10-10T19:40:27.223Z,100.00
2022-10-10T19:43:12.636Z,100.00
2022-10-10T19:45:57.554Z,100.00
2022-10-10T19:48:45.833Z,100.00
2022-10-10T19:51:30.927Z,100.00
2022-10-10T19:54:16.244Z,100.00
2022-10-10T19:57:01.726Z,100.00
2022-10-10T19:59:46.725Z,100.00
2022-10-10T20:02:32.260Z,100.00
2022-10-10T20:05:17.309Z,100.00
2022-10-10T20:08:02.328Z,100.00
2022-10-10T20:10:51.535Z,100.00
2022-10-10T20:13:37.087Z,100.00
2022-10-10T20:16:24.158Z,100.00
2022-10-10T20:19:09.646Z,100.00
2022-10-10T20:21:55.456Z,100.00
2022-10-10T20:24:40.850Z,100.00
2022-10-10T20:27:30.848Z,100.00
2022-10-10T20:30:16.369Z,100.00
2022-10-10T20:33:02.856Z,100.00
2022-10-10T20:35:52.314Z,100.00
2022-10-10T20:38:40.437Z,100.00
2022-10-10T20:41:28.161Z,100.00
2022-10-10T20:44:16.542Z,100.00
2022-10-10T20:47:01.613Z,100.00
2022-10-10T20:49:47.091Z,100.00
2022-10-10T20:52:31.979Z,100.00
2022-10-10T20:55:17.499Z,100.00
2022-10-10T20:58:05.418Z,100.00
2022-10-10T21:00:50.473Z,100.00
2022-10-10T21:03:36.449Z,100.00
2022-10-10T21:06:24.719Z,100.00
2022-10-10T21:09:14.701Z,100.00
2022-10-10T21:12:00.032Z,100.00
2022-10-10T21:14:45.287Z,100.00
2022-10-10T21:17:30.574Z,100.00
2022-10-10T21:20:19.864Z,100.00
2022-10-10T21:23:05.095Z,100.00
2022-10-10T21:25:49.924Z,100.00
2022-10-10T21:28:35.509Z,100.00
2022-10-10T21:31:26.472Z,100.00
2022-10-10T21:34:13.920Z,100.00
2022-10-10T21:37:01.926Z,100.00
2022-10-10T21:39:47.081Z,100.00
2022-10-10T21:42:31.899Z,100.00
2022-10-10T21:45:17.136Z,100.00
2022-10-10T21:48:04.772Z,100.00
2022-10-10T21:50:49.683Z,100.00
2022-10-10T21:53:34.961Z,100.00
2022-10-10T21:56:20.013Z,100.00
2022-10-10T21:59:06.528Z,100.00
2022-10-10T22:01:51.822Z,100.00
2022-10-10T22:04:36.955Z,100.00
2022-10-10T22:07:21.823Z,100.00
2022-10-10T22:10:09.175Z,100.00
2022-10-10T22:12:55.217Z,100.00
2022-10-10T22:15:40.649Z,100.00
2022-10-10T22:18:25.865Z,100.00
2022-10-10T22:21:14.057Z,100.00
2022-10-10T22:24:00.379Z,100.00
2022-10-10T22:26:46.070Z,100.00
2022-10-10T22:29:31.313Z,100.00
2022-10-10T22:32:16.148Z,100.00
2022-10-10T22:35:01.304Z,100.00
2022-10-10T22:37:48.678Z,100.00
2022-10-10T22:40:33.617Z,100.00
2022-10-10T22:43:19.056Z,100.00
2022-10-10T22:46:04.325Z,100.00
2022-10-10T22:48:49.879Z,100.00
2022-10-10T22:51:34.745Z,100.00
2022-10-10T22:54:19.788Z,100.00
2022-10-10T22:57:04.765Z,100.00
2022-10-10T22:59:49.712Z,100.00
2022-10-10T23:02:35.219Z,100.00
2022-10-10T23:05:20.164Z,100.00
2022-10-10T23:08:05.380Z,100.00
2022-10-10T23:10:50.536Z,100.00
2022-10-10T23:13:35.608Z,100.00
2022-10-10T23:16:20.861Z,100.00
2022-10-10T23:19:05.731Z,100.00
2022-10-10T23:21:52.933Z,100.00
2022-10-10T23:24:38.582Z,100.00
2022-10-10T23:27:23.750Z,100.00
2022-10-10T23:30:08.918Z,100.00
2022-10-10T23:32:53.763Z,100.00
2022-10-10T23:35:38.794Z,100.00
2022-10-10T23:38:23.759Z,100.00
2022-10-10T23:41:09.559Z,100.00
2022-10-10T23:43:54.488Z,100.00
2022-10-10T23:46:39.481Z,100.00
2022-10-10T23:49:24.268Z,100.00
2022-10-10T23:52:09.434Z,100.00
2022-10-10T23:54:54.324Z,100.00
2022-10-10T23:57:39.543Z,100.00
